createdAt,value
2019-03-28T00:00:35.253Z,22.37
2019-03-28T00:03:03.813Z,23.87
2019-03-28T00:05:33.098Z,22.90
2019-03-28T00:08:01.658Z,22.10
2019-03-28T00:10:30.283Z,22.20
2019-03-28T00:12:58.841Z,23.17
2019-03-28T00:15:27.472Z,22.77
2019-03-28T00:17:56.006Z,22.70
2019-03-28T00:20:24.579Z,23.33
2019-03-28T00:23:04.015Z,22.10
2019-03-28T00:25:32.971Z,21.73
2019-03-28T00:28:01.493Z,22.67
2019-03-28T00:30:30.132Z,22.70
2019-03-28T00:32:58.695Z,22.40
2019-03-28T00:35:27.249Z,23.10
2019-03-28T00:37:55.827Z,22.77
2019-03-28T00:40:24.458Z,23.00
2019-03-28T00:42:53.041Z,23.10
2019-03-28T00:45:21.678Z,22.63
2019-03-28T00:47:50.211Z,23.43
2019-03-28T00:50:18.843Z,21.57
2019-03-28T00:52:47.487Z,23.90
2019-03-28T00:55:16.075Z,23.23
2019-03-28T00:57:44.631Z,22.20
2019-03-28T01:00:15.319Z,23.20
2019-03-28T01:02:44.060Z,22.63
2019-03-28T01:05:13.866Z,23.80
2019-03-28T01:07:42.509Z,23.73
2019-03-28T01:10:12.138Z,23.77
2019-03-28T01:12:41.697Z,23.50
2019-03-28T01:15:10.689Z,24.80
2019-03-28T01:17:39.259Z,23.93
2019-03-28T01:20:14.580Z,24.33
2019-03-28T01:22:44.038Z,25.97
2019-03-28T01:25:14.985Z,26.07
2019-03-28T01:27:43.581Z,26.60
2019-03-28T01:30:12.202Z,26.20
2019-03-28T01:32:40.824Z,26.53
2019-03-28T01:35:09.552Z,26.87
2019-03-28T01:37:38.118Z,26.23
2019-03-28T01:40:07.353Z,27.67
2019-03-28T01:42:36.031Z,26.43
2019-03-28T01:45:06.435Z,26.37
2019-03-28T01:47:35.025Z,25.43
2019-03-28T01:50:05.009Z,27.17
2019-03-28T01:52:33.563Z,26.37
2019-03-28T01:55:02.214Z,26.43
2019-03-28T01:57:30.783Z,26.73
2019-03-28T01:59:59.337Z,27.77
2019-03-28T02:02:27.923Z,26.87
2019-03-28T02:04:56.536Z,26.70
2019-03-28T02:07:25.251Z,27.10
2019-03-28T02:09:53.935Z,27.77
2019-03-28T02:12:22.539Z,27.03
2019-03-28T02:14:51.105Z,28.00
2019-03-28T02:17:19.664Z,28.23
2019-03-28T02:19:48.229Z,27.93
2019-03-28T02:22:16.831Z,27.17
2019-03-28T02:24:45.390Z,29.67
2019-03-28T02:27:23.444Z,27.77
2019-03-28T02:29:44.239Z,29.23
2019-03-28T02:32:12.867Z,28.47
2019-03-28T02:34:41.442Z,30.43
2019-03-28T02:37:12.186Z,29.10
2019-03-28T02:39:40.749Z,29.63
2019-03-28T02:42:09.309Z,30.57
2019-03-28T02:44:37.897Z,30.93
2019-03-28T02:47:06.464Z,29.00
2019-03-28T02:49:35.026Z,30.60
2019-03-28T02:52:03.623Z,30.27
2019-03-28T02:54:32.166Z,32.00
2019-03-28T02:57:00.730Z,31.33
2019-03-28T02:59:29.294Z,31.90
2019-03-28T03:01:57.871Z,32.07
2019-03-28T03:04:26.429Z,32.37
2019-03-28T03:06:55.020Z,33.13
2019-03-28T03:09:23.576Z,33.10
2019-03-28T03:11:52.130Z,33.27
2019-03-28T03:14:20.747Z,30.83
2019-03-28T03:16:49.299Z,32.23
2019-03-28T03:19:17.862Z,33.33
2019-03-28T03:21:46.447Z,32.20
2019-03-28T03:24:15.590Z,32.70
2019-03-28T03:26:44.190Z,32.17
2019-03-28T03:29:12.732Z,33.37
2019-03-28T03:31:41.318Z,33.77
2019-03-28T03:34:09.929Z,31.93
2019-03-28T03:36:38.494Z,32.13
2019-03-28T03:39:08.390Z,33.27
2019-03-28T03:41:37.076Z,31.87
2019-03-28T03:44:07.195Z,31.97
2019-03-28T03:46:35.897Z,32.17
2019-03-28T03:49:04.862Z,31.60
2019-03-28T03:51:33.741Z,32.23
2019-03-28T03:54:02.321Z,31.63
2019-03-28T03:56:30.892Z,32.23
2019-03-28T03:58:59.497Z,31.37
2019-03-28T04:01:28.071Z,31.50
2019-03-28T04:03:56.642Z,30.83
2019-03-28T04:09:57.336Z,32.23
2019-03-28T04:12:25.942Z,31.27
2019-03-28T04:14:54.560Z,29.87
2019-03-28T04:17:23.246Z,31.07
2019-03-28T04:19:51.836Z,32.03
2019-03-28T04:22:20.815Z,31.20
2019-03-28T04:24:49.434Z,31.60
2019-03-28T04:27:18.050Z,32.00
2019-03-28T04:29:46.673Z,31.73
2019-03-28T04:32:15.293Z,31.47
2019-03-28T04:34:43.933Z,30.33
2019-03-28T04:37:12.548Z,31.10
2019-03-28T04:39:41.219Z,31.70
2019-03-28T04:42:09.838Z,31.20
2019-03-28T04:44:38.569Z,29.97
2019-03-28T04:47:07.215Z,30.67
2019-03-28T04:49:35.825Z,30.83
2019-03-28T04:52:04.501Z,29.83
2019-03-28T04:54:33.117Z,29.70
2019-03-28T04:57:02.304Z,28.97
2019-03-28T04:59:30.957Z,29.80
2019-03-28T05:02:03.254Z,29.60
2019-03-28T05:04:29.840Z,29.83
2019-03-28T05:06:58.479Z,29.00
2019-03-28T05:09:27.081Z,29.17
2019-03-28T05:11:56.019Z,29.20
2019-03-28T05:14:24.673Z,30.43
2019-03-28T05:16:53.281Z,29.20
2019-03-28T05:19:21.895Z,29.33
2019-03-28T05:21:50.511Z,29.13
2019-03-28T05:24:19.121Z,29.00
2019-03-28T05:26:47.769Z,30.40
2019-03-28T05:29:16.405Z,28.73
2019-03-28T05:31:45.013Z,27.17
2019-03-28T05:34:20.806Z,28.20
2019-03-28T05:36:52.100Z,30.70
2019-03-28T05:39:20.087Z,28.20
2019-03-28T05:41:49.245Z,27.90
2019-03-28T05:44:17.893Z,25.50
2019-03-28T05:46:46.576Z,26.90
2019-03-28T05:49:15.341Z,26.53
2019-03-28T05:51:43.982Z,29.98
2019-03-28T05:54:12.526Z,28.37
2019-03-28T05:56:41.130Z,27.10
2019-03-28T05:59:11.195Z,26.23
2019-03-28T06:01:40.108Z,25.70
2019-03-28T06:04:10.292Z,22.77
2019-03-28T06:06:39.045Z,24.07
2019-03-28T06:09:07.843Z,23.10
2019-03-28T06:11:36.472Z,24.23
2019-03-28T06:14:05.475Z,23.40
2019-03-28T06:16:34.042Z,23.17
2019-03-28T06:19:03.008Z,22.13
2019-03-28T06:21:32.871Z,20.67
2019-03-28T06:24:01.419Z,19.97
2019-03-28T06:26:29.987Z,21.03
2019-03-28T06:28:59.955Z,19.90
2019-03-28T06:31:29.560Z,20.17
2019-03-28T06:33:58.202Z,19.20
2019-03-28T06:36:26.908Z,18.93
2019-03-28T06:38:56.528Z,19.70
2019-03-28T06:41:25.125Z,19.50
2019-03-28T06:43:53.839Z,18.47
2019-03-28T06:46:22.403Z,21.40
2019-03-28T06:48:50.955Z,25.00
2019-03-28T06:51:19.521Z,21.03
2019-03-28T06:53:48.091Z,18.90
2019-03-28T06:56:17.335Z,21.10
2019-03-28T06:58:46.199Z,18.80
2019-03-28T07:01:15.938Z,20.37
2019-03-28T07:03:47.408Z,19.87
2019-03-28T07:06:18.910Z,23.00
2019-03-28T07:08:49.104Z,27.30
2019-03-28T07:11:21.283Z,32.57
2019-03-28T07:13:49.854Z,38.33
2019-03-28T07:16:21.038Z,32.00
2019-03-28T07:18:48.964Z,41.63
2019-03-28T07:21:18.243Z,39.50
2019-03-28T07:23:47.567Z,39.00
2019-03-28T07:26:16.172Z,36.50
2019-03-28T07:28:44.741Z,31.67
2019-03-28T07:31:14.834Z,31.10
2019-03-28T07:33:43.403Z,29.07
2019-03-28T07:36:11.957Z,25.53
2019-03-28T07:38:40.967Z,28.60
2019-03-28T07:41:12.540Z,29.57
2019-03-28T07:43:41.903Z,28.23
2019-03-28T07:46:11.167Z,30.47
2019-03-28T07:48:41.011Z,27.53
2019-03-28T07:51:12.756Z,24.60
2019-03-28T07:53:41.344Z,22.23
2019-03-28T07:56:10.710Z,22.43
2019-03-28T07:58:39.873Z,17.53
2019-03-28T08:01:08.425Z,16.73
2019-03-28T08:03:39.953Z,17.13
2019-03-28T08:06:12.945Z,18.30
2019-03-28T08:08:44.168Z,19.13
2019-03-28T08:11:13.031Z,16.07
2019-03-28T08:13:44.619Z,15.90
2019-03-28T08:16:14.692Z,15.33
2019-03-28T08:18:45.391Z,16.67
2019-03-28T08:21:16.195Z,24.60
2019-03-28T08:23:44.795Z,23.90
2019-03-28T08:26:14.544Z,13.30
2019-03-28T08:28:43.768Z,12.87
2019-03-28T08:31:12.377Z,11.67
2019-03-28T08:33:42.746Z,11.47
2019-03-28T08:36:13.427Z,11.03
2019-03-28T08:38:42.293Z,12.53
2019-03-28T08:41:11.859Z,9.90
2019-03-28T08:43:43.192Z,9.97
2019-03-28T08:46:11.851Z,9.27
2019-03-28T08:48:40.444Z,10.27
2019-03-28T08:51:09.011Z,17.07
2019-03-28T08:53:40.553Z,17.43
2019-03-28T08:56:11.237Z,12.67
2019-03-28T08:58:42.021Z,9.93
2019-03-28T09:01:11.907Z,10.30
2019-03-28T09:03:40.492Z,8.40
2019-03-28T09:06:12.103Z,8.30
2019-03-28T09:08:40.745Z,8.50
2019-03-28T09:11:10.619Z,8.23
2019-03-28T09:13:39.802Z,9.30
2019-03-28T09:16:09.893Z,8.83
2019-03-28T09:18:41.555Z,8.87
2019-03-28T09:21:15.687Z,9.00
2019-03-28T09:23:47.754Z,9.30
2019-03-28T09:26:21.618Z,10.53
2019-03-28T09:29:47.981Z,10.80
2019-03-28T09:32:16.629Z,14.10
2019-03-28T09:34:46.647Z,12.73
2019-03-28T09:38:09.847Z,12.10
2019-03-28T09:40:31.213Z,11.77
2019-03-28T09:43:01.095Z,12.50
2019-03-28T09:53:37.077Z,10.07
2019-03-28T09:56:05.643Z,10.33
